createdAt,value
2019-04-16T00:00:28.724Z,0.00
2019-04-16T00:01:28.709Z,0.00
2019-04-16T00:02:28.720Z,0.00
2019-04-16T00:03:28.689Z,0.00
2019-04-16T00:04:28.682Z,0.00
2019-04-16T00:05:28.669Z,0.00
2019-04-16T00:06:28.668Z,0.00
2019-04-16T00:07:28.674Z,0.00
2019-04-16T00:08:28.644Z,0.00
2019-04-16T00:09:28.626Z,0.00
2019-04-16T00:10:28.613Z,0.00
2019-04-16T00:11:28.607Z,0.00
2019-04-16T00:12:28.637Z,0.00
2019-04-16T00:13:28.587Z,0.00
2019-04-16T00:14:28.587Z,0.00
2019-04-16T00:15:28.562Z,0.00
2019-04-16T00:16:28.551Z,0.00
2019-04-16T00:17:28.543Z,0.00
2019-04-16T00:18:28.559Z,0.00
2019-04-16T00:19:28.523Z,0.00
2019-04-16T00:20:28.520Z,0.00
2019-04-16T00:21:28.506Z,0.00
2019-04-16T00:22:28.486Z,0.00
2019-04-16T00:23:28.521Z,0.00
2019-04-16T00:24:28.467Z,0.00
2019-04-16T00:25:28.466Z,0.00
2019-04-16T00:26:28.448Z,0.00
2019-04-16T00:27:29.358Z,0.00
2019-04-16T00:28:30.823Z,0.00
2019-04-16T00:29:32.613Z,0.00
2019-04-16T00:30:29.408Z,0.00
2019-04-16T00:31:28.395Z,0.00
2019-04-16T00:32:28.383Z,0.00
2019-04-16T00:33:28.397Z,0.00
2019-04-16T00:34:28.366Z,0.00
2019-04-16T00:35:28.353Z,0.00
2019-04-16T00:36:28.358Z,0.00
2019-04-16T00:37:28.334Z,0.00
2019-04-16T00:38:40.003Z,0.00
2019-04-16T00:39:29.298Z,0.00
2019-04-16T00:40:28.294Z,0.00
2019-04-16T00:41:28.292Z,0.00
2019-04-16T00:42:28.278Z,0.00
2019-04-16T00:43:28.295Z,0.00
2019-04-16T00:44:28.330Z,0.00
2019-04-16T00:45:28.245Z,0.00
2019-04-16T00:46:28.232Z,0.00
2019-04-16T00:47:28.224Z,0.00
2019-04-16T00:48:28.234Z,0.00
2019-04-16T00:49:28.211Z,0.00
2019-04-16T00:50:28.191Z,0.00
2019-04-16T00:51:28.178Z,0.00
2019-04-16T00:52:28.167Z,0.00
2019-04-16T00:53:28.194Z,0.00
2019-04-16T00:54:28.152Z,0.00
2019-04-16T00:55:28.138Z,0.00
2019-04-16T00:56:28.126Z,0.00
2019-04-16T00:57:28.118Z,0.00
2019-04-16T00:58:28.136Z,0.00
2019-04-16T00:59:28.094Z,0.00
2019-04-16T01:00:30.595Z,0.00
2019-04-16T01:01:28.074Z,0.00
2019-04-16T01:02:28.062Z,0.00
2019-04-16T01:03:28.074Z,0.00
2019-04-16T01:04:28.038Z,0.00
2019-04-16T01:05:28.030Z,0.00
2019-04-16T01:06:28.024Z,0.00
2019-04-16T01:07:28.012Z,0.00
2019-04-16T01:08:28.084Z,0.00
2019-04-16T01:09:27.989Z,0.00
2019-04-16T01:10:27.978Z,0.00
2019-04-16T01:11:27.968Z,0.00
2019-04-16T01:12:27.964Z,0.00
2019-04-16T01:13:28.043Z,0.00
2019-04-16T01:14:27.938Z,0.00
2019-04-16T01:15:29.263Z,0.00
2019-04-16T01:16:30.253Z,0.00
2019-04-16T01:17:27.905Z,0.00
2019-04-16T01:18:27.918Z,0.00
2019-04-16T01:19:27.878Z,0.00
2019-04-16T01:20:27.871Z,0.00
2019-04-16T01:21:27.889Z,0.00
2019-04-16T01:22:27.847Z,0.00
2019-04-16T01:23:27.862Z,0.00
2019-04-16T01:24:27.830Z,0.00
2019-04-16T01:25:27.815Z,0.00
2019-04-16T01:26:27.814Z,0.00
2019-04-16T01:27:28.769Z,0.00
2019-04-16T01:28:29.431Z,0.00
2019-04-16T01:29:27.784Z,0.00
2019-04-16T01:30:27.764Z,0.00
2019-04-16T01:31:27.759Z,0.00
2019-04-16T01:32:27.739Z,0.00
2019-04-16T01:33:27.775Z,0.00
2019-04-16T01:34:27.723Z,0.00
2019-04-16T01:35:27.718Z,0.00
2019-04-16T01:36:27.701Z,0.00
2019-04-16T01:37:27.685Z,0.00
2019-04-16T01:38:28.602Z,0.00
2019-04-16T01:39:27.712Z,0.00
2019-04-16T01:40:27.654Z,0.00
2019-04-16T01:41:27.656Z,0.00
2019-04-16T01:42:27.636Z,0.00
2019-04-16T01:43:27.622Z,0.00
2019-04-16T01:44:29.466Z,0.00
2019-04-16T01:45:29.822Z,0.00
2019-04-16T01:46:27.755Z,0.00
2019-04-16T01:47:27.583Z,0.00
2019-04-16T01:48:27.570Z,0.00
2019-04-16T01:49:27.584Z,0.00
2019-04-16T01:50:27.550Z,0.00
2019-04-16T01:51:27.541Z,0.00
2019-04-16T01:52:27.530Z,0.00
2019-04-16T01:53:27.517Z,0.00
2019-04-16T01:54:27.543Z,0.00
2019-04-16T01:55:27.494Z,0.00
2019-04-16T01:56:28.846Z,0.00
2019-04-16T01:57:28.410Z,0.00
2019-04-16T01:58:27.467Z,0.00
2019-04-16T01:59:27.483Z,0.00
2019-04-16T02:00:27.456Z,0.00
2019-04-16T02:01:27.435Z,0.00
2019-04-16T02:02:27.432Z,0.00
2019-04-16T02:03:27.407Z,0.00
2019-04-16T02:04:27.423Z,0.00
2019-04-16T02:05:27.388Z,0.00
2019-04-16T02:06:27.382Z,0.00
2019-04-16T02:07:27.954Z,0.00
2019-04-16T02:08:28.290Z,0.00
2019-04-16T02:09:27.370Z,0.00
2019-04-16T02:10:27.336Z,0.00
2019-04-16T02:11:27.323Z,0.00
2019-04-16T02:12:27.319Z,0.00
2019-04-16T02:13:27.317Z,0.00
2019-04-16T02:14:27.325Z,0.00
2019-04-16T02:15:27.292Z,0.00
2019-04-16T02:16:27.283Z,0.00
2019-04-16T02:17:27.755Z,0.00
2019-04-16T02:18:29.683Z,0.00
2019-04-16T02:19:27.268Z,0.00
2019-04-16T02:20:27.229Z,0.00
2019-04-16T02:21:27.232Z,0.00
2019-04-16T02:22:27.213Z,0.00
2019-04-16T02:23:27.199Z,0.00
2019-04-16T02:24:27.202Z,0.00
2019-04-16T02:25:27.174Z,0.00
2019-04-16T02:26:27.169Z,0.00
2019-04-16T02:27:27.257Z,0.00
2019-04-16T02:28:28.314Z,0.00
2019-04-16T02:29:29.784Z,0.00
2019-04-16T02:30:27.124Z,0.00
2019-04-16T02:31:27.122Z,0.00
2019-04-16T02:32:27.105Z,0.00
2019-04-16T02:33:27.103Z,0.00
2019-04-16T02:34:27.118Z,0.00
2019-04-16T02:35:27.079Z,0.00
2019-04-16T02:36:27.058Z,0.00
2019-04-16T02:37:27.047Z,0.00
2019-04-16T02:38:27.042Z,0.00
2019-04-16T02:39:46.508Z,0.00
2019-04-16T02:40:28.017Z,0.00
2019-04-16T02:41:27.010Z,0.00
2019-04-16T02:42:30.467Z,0.00
2019-04-16T02:43:26.998Z,0.00
2019-04-16T02:44:27.019Z,0.00
2019-04-16T02:45:26.966Z,0.00
2019-04-16T02:46:30.610Z,0.00
2019-04-16T02:47:27.939Z,0.00
2019-04-16T02:48:26.936Z,0.00
2019-04-16T02:49:26.934Z,0.00
2019-04-16T02:50:30.951Z,0.00
2019-04-16T02:51:27.902Z,0.00
2019-04-16T02:52:26.894Z,0.00
2019-04-16T02:53:26.878Z,0.00
2019-04-16T02:54:32.447Z,0.00
2019-04-16T02:55:27.889Z,0.00
2019-04-16T02:56:26.847Z,0.00
2019-04-16T02:57:27.921Z,0.00
2019-04-16T02:58:33.302Z,0.00
2019-04-16T02:59:27.816Z,0.00
2019-04-16T03:00:26.838Z,0.00
2019-04-16T03:01:26.794Z,0.00
2019-04-16T03:02:26.784Z,0.00
2019-04-16T03:03:26.811Z,0.00
2019-04-16T03:04:27.707Z,0.00
2019-04-16T03:05:29.117Z,0.00
2019-04-16T03:06:31.641Z,0.00
2019-04-16T03:07:27.733Z,0.00
2019-04-16T03:08:26.725Z,0.00
2019-04-16T03:09:26.706Z,0.00
2019-04-16T03:10:26.725Z,0.00
2019-04-16T03:11:26.689Z,0.00
2019-04-16T03:12:26.706Z,0.00
2019-04-16T03:13:26.677Z,0.00
2019-04-16T03:14:29.705Z,0.00
2019-04-16T03:15:26.653Z,0.00
2019-04-16T03:16:26.640Z,0.00
2019-04-16T03:17:26.652Z,0.00
2019-04-16T03:18:26.620Z,0.00
2019-04-16T03:19:26.614Z,0.00
2019-04-16T03:20:26.606Z,0.00
2019-04-16T03:21:27.534Z,0.00
2019-04-16T03:22:26.598Z,0.00
2019-04-16T03:23:26.567Z,0.00
2019-04-16T03:24:26.553Z,0.00
2019-04-16T03:25:26.551Z,0.00
2019-04-16T03:26:26.538Z,0.00
2019-04-16T03:27:26.579Z,0.00
2019-04-16T03:28:27.336Z,0.00
2019-04-16T03:29:27.488Z,0.00
2019-04-16T03:30:26.498Z,0.00
2019-04-16T03:31:26.483Z,0.00
2019-04-16T03:32:33.611Z,0.00
2019-04-16T03:33:27.457Z,0.00
2019-04-16T03:34:26.454Z,0.00
2019-04-16T03:35:26.889Z,0.00
2019-04-16T03:36:29.067Z,0.00
2019-04-16T03:37:26.444Z,0.00
2019-04-16T03:38:26.411Z,0.00
2019-04-16T03:39:26.394Z,0.00
2019-04-16T03:40:26.390Z,0.00
2019-04-16T03:41:26.375Z,0.00
2019-04-16T03:42:27.385Z,0.00
2019-04-16T03:43:26.361Z,0.00
2019-04-16T03:44:26.347Z,0.00
2019-04-16T03:45:26.343Z,0.00
2019-04-16T03:46:26.320Z,0.00
2019-04-16T03:47:26.337Z,0.00
2019-04-16T03:48:26.313Z,0.00
2019-04-16T03:49:27.787Z,0.00
2019-04-16T03:50:31.016Z,0.00
2019-04-16T03:51:27.266Z,0.00
2019-04-16T03:52:26.288Z,4.00
2019-04-16T03:53:26.256Z,4.00
2019-04-16T03:54:26.245Z,0.00
2019-04-16T03:55:26.554Z,4.00
2019-04-16T03:56:27.548Z,4.00
2019-04-16T03:57:26.262Z,0.00
2019-04-16T03:58:26.197Z,4.00
2019-04-16T03:59:26.268Z,4.00
2019-04-16T04:00:26.171Z,8.00
2019-04-16T04:01:26.167Z,8.00
2019-04-16T04:02:26.151Z,8.00
2019-04-16T04:03:26.909Z,12.00
2019-04-16T04:04:28.912Z,16.00
2019-04-16T04:05:26.132Z,16.00
2019-04-16T04:06:26.110Z,16.00
2019-04-16T04:07:26.100Z,20.00
2019-04-16T04:08:26.118Z,24.00
2019-04-16T04:09:26.078Z,28.00
2019-04-16T04:10:30.842Z,36.00
2019-04-16T04:11:27.059Z,40.00
2019-04-16T04:12:27.763Z,44.00
2019-04-16T04:13:26.083Z,56.00
2019-04-16T04:14:26.031Z,64.00
2019-04-16T04:15:27.115Z,68.00
2019-04-16T04:16:26.015Z,84.00
2019-04-16T04:17:26.004Z,96.00
2019-04-16T04:18:26.017Z,112.00
2019-04-16T04:19:25.982Z,128.00
2019-04-16T04:20:25.968Z,144.00
2019-04-16T04:21:25.956Z,164.00
2019-04-16T04:22:26.649Z,184.00
2019-04-16T04:23:28.675Z,208.00
2019-04-16T04:24:28.547Z,232.00
2019-04-16T04:25:26.909Z,264.00
2019-04-16T04:26:25.898Z,292.00
2019-04-16T04:27:25.891Z,324.00
2019-04-16T04:28:25.993Z,356.00
2019-04-16T04:29:25.879Z,396.00
2019-04-16T04:30:28.811Z,432.00
2019-04-16T04:31:25.848Z,472.00
2019-04-16T04:32:25.840Z,520.00
2019-04-16T04:33:25.862Z,564.00
2019-04-16T04:34:25.834Z,612.00
2019-04-16T04:35:25.806Z,664.00
2019-04-16T04:36:26.985Z,716.00
2019-04-16T04:37:30.919Z,772.00
2019-04-16T04:38:26.803Z,828.00
2019-04-16T04:39:25.767Z,892.00
2019-04-16T04:40:25.755Z,952.00
2019-04-16T04:41:25.743Z,1016.00
2019-04-16T04:42:28.363Z,1084.00
2019-04-16T04:43:25.750Z,1152.00
2019-04-16T04:44:25.710Z,1224.00
2019-04-16T04:45:25.709Z,1296.00
2019-04-16T04:46:25.698Z,1368.00
2019-04-16T04:47:25.679Z,1444.00
2019-04-16T04:48:25.702Z,1520.00
2019-04-16T04:49:30.137Z,1596.00
2019-04-16T04:50:26.649Z,1676.00
2019-04-16T04:51:25.642Z,1760.00
2019-04-16T04:52:27.354Z,1836.00
2019-04-16T04:53:25.645Z,1920.00
2019-04-16T04:54:25.609Z,2000.00
2019-04-16T04:55:26.863Z,2084.00
2019-04-16T04:56:27.939Z,2168.00
2019-04-16T04:57:25.578Z,2252.00
2019-04-16T04:58:25.607Z,2340.00
2019-04-16T04:59:25.556Z,2424.00
2019-04-16T05:00:25.543Z,2512.00
2019-04-16T05:01:25.535Z,2600.00
2019-04-16T05:02:25.523Z,2688.00
2019-04-16T05:03:25.520Z,2768.00
2019-04-16T05:04:25.551Z,2852.00
2019-04-16T05:05:25.926Z,2936.00
2019-04-16T05:06:27.848Z,3024.00
2019-04-16T05:07:25.726Z,3108.00
2019-04-16T05:08:25.464Z,3196.00
2019-04-16T05:09:25.509Z,3280.00
2019-04-16T05:10:25.475Z,3368.00
2019-04-16T05:11:25.430Z,3452.00
2019-04-16T05:12:25.428Z,3536.00
2019-04-16T05:13:25.407Z,3624.00
2019-04-16T05:14:26.097Z,3704.00
2019-04-16T05:15:26.507Z,3792.00
2019-04-16T05:16:25.413Z,3876.00
2019-04-16T05:17:25.369Z,3960.00
2019-04-16T05:18:25.360Z,4044.00
2019-04-16T05:19:25.383Z,4132.00
2019-04-16T05:20:25.332Z,4212.00
2019-04-16T05:21:25.335Z,4296.00
2019-04-16T05:22:25.317Z,4384.00
2019-04-16T05:23:26.092Z,4468.00
2019-04-16T05:24:28.903Z,4552.00
2019-04-16T05:25:25.284Z,4648.00
2019-04-16T05:26:25.273Z,4736.00
2019-04-16T05:27:25.265Z,4804.00
2019-04-16T05:28:25.251Z,4876.00
2019-04-16T05:29:25.266Z,4948.00
2019-04-16T05:30:25.230Z,5020.00
2019-04-16T05:31:26.196Z,5084.00
2019-04-16T05:32:25.992Z,5152.00
2019-04-16T05:33:25.205Z,5220.00
2019-04-16T05:34:37.356Z,5284.00
2019-04-16T05:35:25.176Z,5352.00
2019-04-16T05:36:25.165Z,5420.00
2019-04-16T05:37:25.161Z,5484.00
2019-04-16T05:38:25.140Z,5552.00
2019-04-16T05:39:28.132Z,5624.00
2019-04-16T05:40:27.627Z,5692.00
2019-04-16T05:41:26.112Z,5760.00
2019-04-16T05:42:26.257Z,5828.00
2019-04-16T05:43:30.020Z,5896.00
2019-04-16T05:44:26.105Z,5956.00
2019-04-16T05:45:25.068Z,6024.00
2019-04-16T05:46:25.058Z,6088.00
2019-04-16T05:47:25.187Z,6148.00
2019-04-16T05:48:25.037Z,6212.00
2019-04-16T05:49:26.167Z,6276.00
2019-04-16T05:50:28.754Z,6340.00
2019-04-16T05:51:25.013Z,6400.00
2019-04-16T05:52:25.163Z,6464.00
2019-04-16T05:53:24.985Z,6524.00
2019-04-16T05:54:25.002Z,6580.00
2019-04-16T05:55:24.961Z,6640.00
2019-04-16T05:56:25.260Z,6696.00
2019-04-16T05:57:26.196Z,6752.00
2019-04-16T05:58:27.768Z,6812.00
2019-04-16T05:59:25.943Z,6868.00
2019-04-16T06:00:24.910Z,6928.00
2019-04-16T06:01:24.898Z,6984.00
2019-04-16T06:02:24.890Z,7040.00
2019-04-16T06:03:24.877Z,7092.00
2019-04-16T06:04:25.727Z,7148.00
2019-04-16T06:05:27.909Z,7204.00
2019-04-16T06:06:24.849Z,7248.00
2019-04-16T06:07:24.836Z,7300.00
2019-04-16T06:08:24.827Z,7344.00
2019-04-16T06:09:24.825Z,7396.00
2019-04-16T06:10:24.827Z,7448.00
2019-04-16T06:11:29.252Z,7504.00
2019-04-16T06:12:25.782Z,7548.00
2019-04-16T06:13:24.771Z,7600.00
2019-04-16T06:14:25.952Z,7656.00
2019-04-16T06:15:24.782Z,7708.00
2019-04-16T06:16:25.750Z,7752.00
2019-04-16T06:17:25.878Z,7808.00
2019-04-16T06:18:24.714Z,7856.00
2019-04-16T06:19:24.707Z,7908.00
2019-04-16T06:20:24.716Z,7956.00
2019-04-16T06:21:25.760Z,7996.00
2019-04-16T06:22:28.571Z,8048.00
2019-04-16T06:23:24.713Z,8088.00
2019-04-16T06:24:24.653Z,8136.00
2019-04-16T06:25:24.673Z,8180.00
2019-04-16T06:26:24.632Z,8224.00
2019-04-16T06:27:24.619Z,8276.00
2019-04-16T06:28:24.609Z,8320.00
2019-04-16T06:29:25.379Z,8368.00
2019-04-16T06:30:24.636Z,8412.00
2019-04-16T06:31:24.583Z,8460.00
2019-04-16T06:32:27.736Z,8508.00
2019-04-16T06:33:24.559Z,8556.00
2019-04-16T06:34:24.698Z,8608.00
2019-04-16T06:35:24.795Z,8656.00
2019-04-16T06:36:24.533Z,8708.00
2019-04-16T06:37:27.182Z,8768.00
2019-04-16T06:38:24.501Z,8820.00
2019-04-16T06:39:26.535Z,8876.00
2019-04-16T06:40:25.524Z,8928.00
2019-04-16T06:41:24.480Z,8984.00
2019-04-16T06:42:24.467Z,9040.00
2019-04-16T06:43:26.173Z,9096.00
2019-04-16T06:44:24.436Z,9148.00
2019-04-16T06:45:24.424Z,9212.00
2019-04-16T06:46:24.447Z,9268.00
2019-04-16T06:47:24.415Z,9320.00
2019-04-16T06:48:24.399Z,9372.00
2019-04-16T06:49:24.434Z,9420.00
2019-04-16T06:50:32.116Z,9472.00
2019-04-16T06:51:25.401Z,9528.00
2019-04-16T06:52:24.353Z,9584.00
2019-04-16T06:53:25.102Z,9644.00
2019-04-16T06:54:25.560Z,9704.00
2019-04-16T06:55:24.320Z,9768.00
2019-04-16T06:56:24.343Z,9832.00
2019-04-16T06:57:26.943Z,9896.00
2019-04-16T06:58:27.216Z,9956.00
2019-04-16T06:59:26.578Z,10016.00
2019-04-16T07:00:25.263Z,10076.00
2019-04-16T07:01:24.288Z,10140.00
2019-04-16T07:02:24.999Z,10204.00
2019-04-16T07:03:27.005Z,10268.00
2019-04-16T07:04:24.225Z,10348.00
2019-04-16T07:05:24.335Z,10420.00
2019-04-16T07:06:24.245Z,10504.00
2019-04-16T07:07:24.192Z,10588.00
2019-04-16T07:08:36.832Z,10676.00
2019-04-16T07:09:26.428Z,10764.00
2019-04-16T07:10:25.462Z,10868.00
2019-04-16T07:11:24.151Z,10956.00
2019-04-16T07:12:24.209Z,11056.00
2019-04-16T07:13:24.135Z,11164.00
2019-04-16T07:14:24.127Z,11272.00
2019-04-16T07:15:27.861Z,11396.00
2019-04-16T07:16:27.970Z,11520.00
2019-04-16T07:17:24.113Z,11680.00
2019-04-16T07:18:24.076Z,11860.00
2019-04-16T07:19:24.067Z,12172.00
2019-04-16T07:20:24.056Z,14888.00
2019-04-16T07:21:24.048Z,23328.00
2019-04-16T07:22:24.072Z,29760.00
2019-04-16T07:23:25.546Z,31616.00
2019-04-16T07:24:29.486Z,31840.00
2019-04-16T07:25:27.886Z,31136.00
2019-04-16T07:26:23.992Z,30720.00
2019-04-16T07:27:24.099Z,30688.00
2019-04-16T07:28:25.782Z,31616.00
2019-04-16T07:29:24.024Z,32960.00
2019-04-16T07:30:24.037Z,34048.00
2019-04-16T07:31:33.293Z,34752.00
2019-04-16T07:32:25.147Z,34688.00
2019-04-16T07:33:23.923Z,34720.00
2019-04-16T07:34:23.913Z,35584.00
2019-04-16T07:35:26.959Z,36576.00
2019-04-16T07:36:24.224Z,37856.00
2019-04-16T07:37:23.910Z,39456.00
2019-04-16T07:38:23.888Z,39328.00
2019-04-16T07:39:30.116Z,38624.00
2019-04-16T07:40:24.841Z,38624.00
2019-04-16T07:41:23.830Z,39936.00
2019-04-16T07:42:26.340Z,41632.00
2019-04-16T07:43:23.889Z,42752.00
2019-04-16T07:44:23.805Z,42816.00
2019-04-16T07:45:23.790Z,42912.00
2019-04-16T07:46:23.798Z,42304.00
2019-04-16T07:47:23.764Z,41536.00
2019-04-16T07:48:23.785Z,41472.00
2019-04-16T07:49:26.578Z,42272.00
2019-04-16T07:50:23.741Z,43104.00
2019-04-16T07:51:23.721Z,44128.00
2019-04-16T07:52:23.909Z,45248.00
2019-04-16T07:53:23.757Z,45952.00
2019-04-16T07:54:23.700Z,46368.00
2019-04-16T07:55:26.303Z,46400.00
2019-04-16T07:56:23.676Z,45824.00
2019-04-16T07:57:23.667Z,45504.00
2019-04-16T07:58:23.652Z,45696.00
2019-04-16T07:59:23.698Z,46720.00
2019-04-16T08:00:23.627Z,47712.00
2019-04-16T08:01:23.619Z,48832.00
2019-04-16T08:02:23.614Z,49696.00
2019-04-16T08:03:26.885Z,49696.00
2019-04-16T08:04:29.016Z,48896.00
2019-04-16T08:05:27.658Z,48800.00
2019-04-16T08:06:23.567Z,48928.00
2019-04-16T08:07:23.554Z,49920.00
2019-04-16T08:08:24.767Z,51168.00
2019-04-16T08:09:23.570Z,51712.00
2019-04-16T08:10:23.526Z,51552.00
2019-04-16T08:11:23.520Z,50944.00
2019-04-16T08:12:30.361Z,50976.00
2019-04-16T08:13:24.500Z,50912.00
2019-04-16T08:14:23.510Z,51008.00
2019-04-16T08:15:23.489Z,50880.00
2019-04-16T08:16:23.459Z,51296.00
2019-04-16T08:17:23.453Z,52512.00
2019-04-16T08:18:23.471Z,53792.00
2019-04-16T08:19:36.192Z,54016.00
2019-04-16T08:20:24.417Z,54336.00
2019-04-16T08:21:23.405Z,53696.00
2019-04-16T08:22:23.422Z,53056.00
2019-04-16T08:23:23.406Z,53568.00
2019-04-16T08:24:24.790Z,54752.00
2019-04-16T08:25:23.367Z,54752.00
2019-04-16T08:26:23.356Z,54080.00
2019-04-16T08:27:23.344Z,54016.00
2019-04-16T08:28:23.333Z,54688.00
2019-04-16T08:29:26.334Z,53952.00
2019-04-16T08:30:23.309Z,53728.00
2019-04-16T08:31:23.334Z,54272.00
2019-04-16T08:32:25.725Z,55488.00
2019-04-16T08:33:28.278Z,55968.00
2019-04-16T08:34:24.296Z,55328.00
2019-04-16T08:35:23.264Z,55680.00
2019-04-16T08:36:23.246Z,55808.00
2019-04-16T08:37:23.239Z,56352.00
2019-04-16T08:38:25.874Z,57440.00
2019-04-16T08:39:23.271Z,57376.00
2019-04-16T08:40:23.203Z,57600.00
2019-04-16T08:41:23.204Z,57760.00
2019-04-16T08:42:25.669Z,58816.00
2019-04-16T08:43:23.176Z,59296.00
2019-04-16T08:44:23.191Z,59744.00
2019-04-16T08:45:23.153Z,59776.00
2019-04-16T08:46:23.141Z,58592.00
2019-04-16T08:47:23.135Z,57024.00
2019-04-16T08:48:23.121Z,57024.00
2019-04-16T08:49:23.143Z,57280.00
2019-04-16T08:50:25.895Z,57120.00
2019-04-16T08:51:30.254Z,57632.00
2019-04-16T08:52:24.077Z,58208.00
2019-04-16T08:53:23.141Z,58496.00
2019-04-16T08:54:23.087Z,58976.00
2019-04-16T08:55:23.637Z,59520.00
2019-04-16T08:56:23.036Z,59872.00
2019-04-16T08:57:23.032Z,58784.00
2019-04-16T08:58:23.015Z,58016.00
2019-04-16T08:59:23.032Z,59200.00
2019-04-16T09:00:23.003Z,60832.00
2019-04-16T09:01:23.605Z,60672.00
2019-04-16T09:02:23.566Z,61440.00
2019-04-16T09:03:22.967Z,60992.00
2019-04-16T09:04:22.980Z,61952.00
2019-04-16T09:05:22.944Z,61664.00
2019-04-16T09:06:23.180Z,62016.00
2019-04-16T09:07:22.922Z,60576.00
2019-04-16T09:08:22.913Z,59840.00
2019-04-16T09:09:24.804Z,61568.00
2019-04-16T09:10:24.036Z,61888.00
2019-04-16T09:11:23.876Z,63104.00
2019-04-16T09:12:22.919Z,63712.00
2019-04-16T09:13:22.866Z,64032.00
2019-04-16T09:14:25.668Z,63936.00
2019-04-16T09:15:22.866Z,66016.00
2019-04-16T09:16:22.829Z,64384.00
2019-04-16T09:17:22.815Z,60704.00
2019-04-16T09:18:22.809Z,56512.00
2019-04-16T09:19:22.797Z,52768.00
2019-04-16T09:20:23.408Z,54432.00
2019-04-16T09:21:22.776Z,59584.00
2019-04-16T09:22:22.765Z,65216.00
2019-04-16T09:23:26.669Z,68032.00
2019-04-16T09:24:22.749Z,67520.00
2019-04-16T09:25:22.762Z,65056.00
2019-04-16T09:26:23.903Z,64480.00
2019-04-16T09:27:22.716Z,64672.00
2019-04-16T09:28:25.674Z,64992.00
2019-04-16T09:29:22.698Z,67008.00
2019-04-16T09:30:29.763Z,66144.00
2019-04-16T09:31:23.175Z,67808.00
2019-04-16T09:32:30.643Z,67904.00
2019-04-16T09:33:22.653Z,67264.00
2019-04-16T09:34:22.642Z,70048.00
2019-04-16T09:35:22.660Z,70368.00
2019-04-16T09:36:22.622Z,72384.00
2019-04-16T09:37:25.416Z,72512.00
2019-04-16T09:38:23.602Z,68864.00
2019-04-16T09:39:22.838Z,72320.00
2019-04-16T09:40:22.622Z,71040.00
2019-04-16T09:41:22.579Z,72128.00
2019-04-16T09:42:22.565Z,71936.00
2019-04-16T09:43:22.551Z,66944.00
2019-04-16T09:44:22.541Z,68224.00
2019-04-16T09:45:24.765Z,68192.00
2019-04-16T09:46:48.127Z,68672.00
2019-04-16T09:47:23.509Z,73792.00
2019-04-16T09:48:22.506Z,74016.00
2019-04-16T09:49:22.489Z,73408.00
2019-04-16T09:50:22.654Z,78048.00
2019-04-16T09:51:25.233Z,74048.00
2019-04-16T09:52:23.214Z,73408.00
2019-04-16T09:53:32.612Z,76864.00
2019-04-16T09:54:23.445Z,72192.00
2019-04-16T09:55:22.567Z,71072.00
2019-04-16T09:56:23.379Z,77024.00
2019-04-16T09:57:24.364Z,76256.00
2019-04-16T09:58:22.871Z,75552.00
2019-04-16T09:59:22.386Z,77920.00
2019-04-16T10:00:22.376Z,76000.00
2019-04-16T10:01:22.404Z,74208.00
2019-04-16T10:02:22.352Z,80256.00
2019-04-16T10:03:22.574Z,78368.00
2019-04-16T10:04:22.335Z,74208.00
2019-04-16T10:05:22.325Z,78080.00
2019-04-16T10:06:22.313Z,78464.00
2019-04-16T10:07:22.389Z,74432.00
2019-04-16T10:08:22.316Z,77440.00
2019-04-16T10:09:22.678Z,80288.00
2019-04-16T10:10:24.259Z,78304.00
2019-04-16T10:11:23.265Z,76544.00
2019-04-16T10:12:22.282Z,78912.00
2019-04-16T10:13:30.725Z,80608.00
2019-04-16T10:14:23.231Z,76928.00
2019-04-16T10:15:22.235Z,78752.00
2019-04-16T10:16:22.221Z,78208.00
2019-04-16T10:17:22.223Z,79456.00
2019-04-16T10:18:22.196Z,77856.00
2019-04-16T10:19:22.290Z,81088.00
2019-04-16T10:20:22.196Z,82176.00
2019-04-16T10:21:22.206Z,80256.00
2019-04-16T10:22:22.245Z,79936.00
2019-04-16T10:23:22.167Z,80928.00
2019-04-16T10:24:22.133Z,81536.00
2019-04-16T10:25:22.148Z,81952.00
2019-04-16T10:26:22.123Z,81792.00
2019-04-16T10:27:22.271Z,81984.00
2019-04-16T10:28:22.107Z,82720.00
2019-04-16T10:29:22.098Z,81984.00
2019-04-16T10:30:22.073Z,80576.00
2019-04-16T10:31:22.086Z,80192.00
2019-04-16T10:32:22.085Z,79872.00
2019-04-16T10:33:22.054Z,80640.00
2019-04-16T10:34:22.065Z,80768.00
2019-04-16T10:35:22.027Z,80864.00
2019-04-16T10:36:22.046Z,83072.00
2019-04-16T10:37:22.210Z,81696.00
2019-04-16T10:38:22.001Z,80480.00
2019-04-16T10:39:21.985Z,79360.00
2019-04-16T10:40:22.203Z,79456.00
2019-04-16T10:41:22.051Z,78784.00
2019-04-16T10:42:21.975Z,78944.00
2019-04-16T10:43:22.080Z,80928.00
2019-04-16T10:44:21.954Z,80000.00
2019-04-16T10:45:21.932Z,81792.00
2019-04-16T10:46:21.926Z,81728.00
2019-04-16T10:47:22.009Z,81632.00
2019-04-16T10:48:21.888Z,82304.00
2019-04-16T10:49:21.914Z,82560.00
2019-04-16T10:50:21.883Z,83136.00
2019-04-16T10:51:21.868Z,82944.00
2019-04-16T10:52:22.405Z,84896.00
2019-04-16T10:53:21.869Z,83744.00
2019-04-16T10:54:21.854Z,83456.00
2019-04-16T10:55:21.825Z,83936.00
2019-04-16T10:56:22.187Z,83712.00
2019-04-16T10:57:21.826Z,83392.00
2019-04-16T10:58:21.848Z,82976.00
2019-04-16T10:59:21.781Z,83936.00
2019-04-16T11:00:21.776Z,84032.00
2019-04-16T11:01:21.803Z,84096.00
2019-04-16T11:02:21.749Z,84448.00
2019-04-16T11:03:21.779Z,84384.00
2019-04-16T11:04:21.746Z,84096.00
2019-04-16T11:05:21.733Z,83360.00
2019-04-16T11:06:21.742Z,85888.00
2019-04-16T11:07:21.751Z,86304.00
2019-04-16T11:08:21.740Z,86112.00
2019-04-16T11:09:21.685Z,86400.00
2019-04-16T11:10:21.670Z,85376.00
2019-04-16T11:11:21.662Z,85632.00
2019-04-16T11:12:21.652Z,85696.00
2019-04-16T11:13:21.685Z,86016.00
2019-04-16T11:14:21.629Z,84736.00
2019-04-16T11:15:21.668Z,85184.00
2019-04-16T11:16:21.608Z,85824.00
2019-04-16T11:17:21.603Z,85248.00
2019-04-16T11:18:21.767Z,85216.00
2019-04-16T11:19:21.587Z,86720.00
2019-04-16T11:20:21.575Z,84736.00
2019-04-16T11:21:21.591Z,84320.00
2019-04-16T11:22:21.634Z,86048.00
2019-04-16T11:23:21.554Z,85120.00
2019-04-16T11:24:21.553Z,85952.00
2019-04-16T11:25:21.517Z,85792.00
2019-04-16T11:26:21.513Z,86240.00
2019-04-16T11:27:21.503Z,84896.00
2019-04-16T11:28:21.532Z,86656.00
2019-04-16T11:29:21.551Z,88288.00
2019-04-16T11:30:21.478Z,87616.00
2019-04-16T11:31:21.496Z,89728.00
2019-04-16T11:32:21.449Z,90112.00
2019-04-16T11:33:21.458Z,89152.00
2019-04-16T11:34:21.482Z,90592.00
2019-04-16T11:35:32.256Z,89504.00
2019-04-16T11:36:21.438Z,90400.00
2019-04-16T11:37:21.432Z,89600.00
2019-04-16T11:38:21.398Z,90688.00
2019-04-16T11:39:21.417Z,90400.00
2019-04-16T11:40:21.377Z,89184.00
2019-04-16T11:41:21.365Z,90400.00
2019-04-16T11:42:21.349Z,89216.00
2019-04-16T11:43:21.340Z,89792.00
2019-04-16T11:44:21.355Z,89280.00
2019-04-16T11:45:21.317Z,90400.00
2019-04-16T11:46:21.324Z,88064.00
2019-04-16T11:47:21.343Z,89120.00
2019-04-16T11:48:21.303Z,86464.00
2019-04-16T11:49:21.409Z,85216.00
2019-04-16T11:50:21.296Z,84800.00
2019-04-16T11:51:21.287Z,86560.00
2019-04-16T11:52:21.247Z,86496.00
2019-04-16T11:53:21.244Z,87520.00
2019-04-16T11:54:21.270Z,88896.00
2019-04-16T11:55:21.249Z,90880.00
2019-04-16T11:56:22.653Z,90752.00
2019-04-16T11:57:21.202Z,90784.00
2019-04-16T11:58:21.243Z,90624.00
2019-04-16T11:59:21.257Z,90208.00
2019-04-16T12:00:21.189Z,89312.00
2019-04-16T12:01:23.013Z,89728.00
2019-04-16T12:02:21.171Z,88960.00
2019-04-16T12:03:21.183Z,87808.00
2019-04-16T12:04:21.165Z,89664.00
2019-04-16T12:05:21.135Z,90272.00
2019-04-16T12:06:28.392Z,89056.00
2019-04-16T12:07:22.126Z,89504.00
2019-04-16T12:08:21.137Z,86688.00
2019-04-16T12:09:21.123Z,84288.00
2019-04-16T12:10:21.087Z,84320.00
2019-04-16T12:11:21.081Z,85376.00
2019-04-16T12:12:21.072Z,84672.00
2019-04-16T12:13:21.074Z,87040.00
2019-04-16T12:14:30.664Z,85344.00
2019-04-16T12:15:22.027Z,86528.00
2019-04-16T12:16:21.231Z,86112.00
2019-04-16T12:17:21.011Z,87456.00
2019-04-16T12:18:21.131Z,88128.00
2019-04-16T12:19:21.043Z,87744.00